Time;durP1;ratioP1;P1;durP2;ratioP2;P2;SDS_P1;SDS_P2;PMS_P1;PMS_P2;Temp;Humidity;BMP_temperature;BMP_pressure;BME280_temperature;BME280_humidity;BME280_pressure;Samples;Min_cycle;Max_cycle;Signal;HPM_P1;HPM_P2
2023/07/20 00:01:25;;;;;;;3.08;2.22;;;;;15.40;94104.00;;;;7397584;19;20145;-82
2023/07/20 00:03:56;;;;;;;2.85;2.08;;;;;15.40;94101.00;;;;7394897;19;20648;-80
2023/07/20 00:06:31;;;;;;;3.13;2.10;;;;;15.30;94105.00;;;;7397087;19;20168;-80
2023/07/20 00:09:08;;;;;;;5.10;2.40;;;;;15.10;94108.00;;;;7395908;19;20148;-80
2023/07/20 00:11:50;;;;;;;2.80;1.90;;;;;15.00;94103.00;;;;7393551;19;20144;-81
2023/07/20 00:14:27;;;;;;;5.10;2.10;;;;;14.90;94108.00;;;;7395404;19;20655;-80
2023/07/20 00:17:09;;;;;;;4.32;2.60;;;;;14.90;94119.00;;;;7395312;19;20650;-79
2023/07/20 00:19:37;;;;;;;4.55;2.17;;;;;14.90;94113.00;;;;7396111;19;20163;-80
2023/07/20 00:22:13;;;;;;;3.75;2.15;;;;;14.90;94120.00;;;;7396556;19;20616;-81
2023/07/20 00:24:49;;;;;;;3.63;2.35;;;;;14.80;94108.00;;;;7394667;19;20140;-81
2023/07/20 00:27:25;;;;;;;5.55;2.13;;;;;14.80;94117.00;;;;7397723;19;20521;-81
2023/07/20 00:29:59;;;;;;;3.28;2.08;;;;;14.70;94113.00;;;;7395596;19;20243;-80
2023/07/20 00:32:27;;;;;;;6.20;2.47;;;;;14.80;94109.00;;;;7394275;19;20584;-80
2023/07/20 00:35:02;;;;;;;2.33;2.10;;;;;14.60;94110.00;;;;7396132;19;20141;-80
2023/07/20 00:37:30;;;;;;;4.43;2.25;;;;;14.60;94115.00;;;;7394564;19;20533;-78
2023/07/20 00:40:07;;;;;;;2.70;2.42;;;;;14.50;94118.00;;;;7394745;19;20144;-79
2023/07/20 00:42:37;;;;;;;3.05;2.42;;;;;14.30;94122.00;;;;7394200;19;20125;-78
2023/07/20 00:45:12;;;;;;;4.03;2.60;;;;;14.20;94126.00;;;;7396560;19;20148;-78
2023/07/20 00:47:41;;;;;;;4.10;2.30;;;;;14.20;94131.00;;;;7394363;19;20632;-79
2023/07/20 00:50:16;;;;;;;8.73;2.50;;;;;14.40;94119.00;;;;7396428;19;20148;-78
2023/07/20 00:52:44;;;;;;;4.65;2.40;;;;;14.50;94124.00;;;;7391683;19;20145;-79
2023/07/20 00:55:24;;;;;;;3.47;2.33;;;;;14.50;94119.00;;;;7389867;19;20608;-77
2023/07/20 00:57:59;;;;;;;3.33;2.13;;;;;14.50;94116.00;;;;7395148;19;20141;-78
2023/07/20 01:00:34;;;;;;;3.40;2.00;;;;;14.50;94123.00;;;;7394680;19;20145;-78
2023/07/20 01:03:09;;;;;;;7.18;2.33;;;;;14.20;94113.00;;;;7388058;19;20523;-80
2023/07/20 01:05:51;;;;;;;5.68;2.20;;;;;14.10;94116.00;;;;7394684;19;20161;-79
2023/07/20 01:08:43;;;;;;;6.78;2.30;;;;;14.30;94118.00;;;;7393590;19;20341;-82
2023/07/20 01:11:28;;;;;;;2.75;2.10;;;;;14.00;94107.00;;;;7395991;19;20132;-81
2023/07/20 01:14:04;;;;;;;2.55;1.80;;;;;13.90;94113.00;;;;7397272;19;20148;-80
2023/07/20 01:16:34;;;;;;;4.35;2.30;;;;;14.00;94111.00;;;;7395261;19;20513;-81
2023/07/20 01:19:14;;;;;;;6.00;2.13;;;;;14.00;94112.00;;;;7394633;19;20532;-82
2023/07/20 01:22:19;;;;;;;3.42;2.30;;;;;14.00;94110.00;;;;7392876;19;20153;-80
2023/07/20 01:25:01;;;;;;;3.05;2.65;;;;;13.80;94111.00;;;;7395145;19;20167;-82
2023/07/20 01:28:03;;;;;;;5.03;2.20;;;;;13.70;94116.00;;;;7393993;19;20149;-81
2023/07/20 01:31:05;;;;;;;3.55;2.17;;;;;13.80;94105.00;;;;7399719;19;20140;-84
2023/07/20 01:33:42;;;;;;;5.10;2.17;;;;;13.60;94117.00;;;;7400303;19;20169;-81
2023/07/20 01:36:24;;;;;;;5.22;2.85;;;;;13.60;94109.00;;;;7401690;19;20150;-83
2023/07/20 01:38:59;;;;;;;3.90;2.03;;;;;13.40;94113.00;;;;7403168;19;20153;-82
2023/07/20 01:41:27;;;;;;;3.67;2.15;;;;;13.50;94106.00;;;;7399393;19;20164;-83
2023/07/20 01:44:04;;;;;;;7.50;2.47;;;;;13.70;94105.00;;;;7400966;19;20148;-86
2023/07/20 01:46:38;;;;;;;6.85;2.45;;;;;13.60;94100.00;;;;7401541;19;20144;-81
2023/07/20 01:49:12;;;;;;;3.25;2.20;;;;;13.70;94101.00;;;;7400239;19;20586;-81
2023/07/20 01:51:40;;;;;;;3.40;2.28;;;;;13.60;94095.00;;;;7400421;19;20674;-83
2023/07/20 01:54:14;;;;;;;3.85;2.30;;;;;13.60;94097.00;;;;7397642;19;20207;-87
2023/07/20 01:56:42;;;;;;;3.40;2.33;;;;;13.50;94094.00;;;;7399968;19;20133;-83
2023/07/20 01:59:17;;;;;;;3.50;2.35;;;;;13.50;94100.00;;;;7401116;19;20134;-82
2023/07/20 02:01:52;;;;;;;3.63;2.30;;;;;13.40;94110.00;;;;7397485;19;20200;-80
2023/07/20 02:04:34;;;;;;;4.60;2.45;;;;;13.20;94101.00;;;;7401026;19;20136;-79
2023/07/20 02:07:03;;;;;;;4.63;2.25;;;;;13.10;94095.00;;;;7400577;19;20512;-78
2023/07/20 02:09:39;;;;;;;3.85;2.25;;;;;13.10;94094.00;;;;7400096;19;20158;-82
2023/07/20 02:12:10;;;;;;;6.15;2.55;;;;;13.00;94095.00;;;;7396524;19;20133;-82
2023/07/20 02:14:38;;;;;;;3.03;2.30;;;;;13.00;94095.00;;;;7398041;19;20144;-81
2023/07/20 02:17:14;;;;;;;4.45;2.38;;;;;13.00;94099.00;;;;7399436;19;20496;-79
2023/07/20 02:19:42;;;;;;;4.40;2.33;;;;;12.80;94105.00;;;;7400223;19;20133;-80
2023/07/20 02:22:16;;;;;;;2.85;2.42;;;;;12.80;94095.00;;;;7398993;19;20129;-78
2023/07/20 02:24:44;;;;;;;7.85;2.20;;;;;12.80;94098.00;;;;7398283;19;20596;-78
2023/07/20 02:27:14;;;;;;;4.78;2.50;;;;;12.90;94093.00;;;;7399237;19;20139;-78
2023/07/20 02:29:58;;;;;;;2.50;2.22;;;;;12.80;94098.00;;;;7399640;19;20155;-80
2023/07/20 02:32:32;;;;;;;4.45;2.45;;;;;12.80;94102.00;;;;7397844;19;20273;-80
2023/07/20 02:35:07;;;;;;;3.72;2.13;;;;;12.70;94099.00;;;;7398287;19;20964;-80
2023/07/20 02:37:42;;;;;;;4.30;2.28;;;;;12.60;94107.00;;;;7399907;19;20607;-79
2023/07/20 02:40:12;;;;;;;3.58;2.13;;;;;12.60;94108.00;;;;7398509;19;20144;-78
2023/07/20 02:42:46;;;;;;;3.10;2.20;;;;;12.60;94107.00;;;;7395742;19;20523;-79
2023/07/20 02:45:14;;;;;;;3.53;2.92;;;;;12.50;94107.00;;;;7397475;19;20140;-80
2023/07/20 02:47:48;;;;;;;5.20;2.58;;;;;12.30;94127.00;;;;7400754;19;20635;-80
2023/07/20 02:50:16;;;;;;;5.65;2.13;;;;;12.10;94122.00;;;;7399413;19;20610;-80
2023/07/20 02:52:50;;;;;;;6.35;2.42;;;;;12.00;94114.00;;;;7398830;19;20165;-80
2023/07/20 02:55:19;;;;;;;3.55;2.30;;;;;11.90;94110.00;;;;7397013;19;20145;-80
2023/07/20 02:57:54;;;;;;;3.25;2.38;;;;;11.80;94114.00;;;;7397917;19;20140;-80
2023/07/20 03:00:29;;;;;;;3.13;2.08;;;;;11.70;94111.00;;;;7397370;19;20154;-81
2023/07/20 03:03:11;;;;;;;3.10;2.40;;;;;11.50;94110.00;;;;7395452;19;20184;-81
2023/07/20 03:05:41;;;;;;;4.25;2.38;;;;;11.40;94113.00;;;;7398034;19;20143;-81
2023/07/20 03:08:16;;;;;;;5.50;2.50;;;;;11.40;94115.00;;;;7399318;19;20227;-81
2023/07/20 03:10:44;;;;;;;5.80;2.80;;;;;11.50;94103.00;;;;7400468;19;20196;-81
2023/07/20 03:13:19;;;;;;;4.10;2.70;;;;;11.70;94114.00;;;;7398548;19;20148;-81
2023/07/20 03:15:47;;;;;;;4.23;2.43;;;;;11.60;94113.00;;;;7397587;19;20216;-80
2023/07/20 03:18:22;;;;;;;5.40;2.27;;;;;11.60;94109.00;;;;7398554;19;20175;-80
2023/07/20 03:20:57;;;;;;;3.43;2.50;;;;;11.50;94108.00;;;;7398760;19;20498;-80
2023/07/20 03:23:32;;;;;;;3.67;2.47;;;;;11.40;94110.00;;;;7396814;19;20132;-80
2023/07/20 03:26:10;;;;;;;6.27;2.53;;;;;11.20;94111.00;;;;7398361;19;20156;-80
2023/07/20 03:28:45;;;;;;;6.57;2.50;;;;;11.20;94114.00;;;;7397688;19;20129;-80
2023/07/20 03:31:14;;;;;;;4.53;2.43;;;;;11.10;94115.00;;;;7397053;19;20668;-81
2023/07/20 03:33:49;;;;;;;6.17;2.70;;;;;11.20;94120.00;;;;7394018;19;20136;-81
2023/07/20 03:36:24;;;;;;;6.03;2.70;;;;;11.20;94119.00;;;;7397866;19;20144;-82
2023/07/20 03:38:59;;;;;;;5.13;2.50;;;;;11.10;94113.00;;;;7398520;19;20640;-81
2023/07/20 03:41:34;;;;;;;4.17;2.77;;;;;11.10;94127.00;;;;7395693;19;20539;-81
2023/07/20 03:44:09;;;;;;;4.70;2.30;;;;;11.20;94125.00;;;;7396771;19;20285;-81
2023/07/20 03:46:44;;;;;;;3.22;2.53;;;;;11.30;94121.00;;;;7397363;19;20495;-81
2023/07/20 03:49:19;;;;;;;4.47;2.67;;;;;11.50;94123.00;;;;7394488;19;20144;-82
2023/07/20 03:51:54;;;;;;;3.73;2.67;;;;;11.60;94122.00;;;;7395658;19;20153;-81
2023/07/20 03:54:29;;;;;;;4.30;2.43;;;;;11.70;94130.00;;;;7396737;19;20603;-82
2023/07/20 03:57:04;;;;;;;6.87;2.90;;;;;11.90;94120.00;;;;7395499;19;20140;-82
2023/07/20 03:59:44;;;;;;;3.47;2.40;;;;;12.10;94121.00;;;;7393833;19;20255;-81
2023/07/20 04:02:12;;;;;;;4.73;2.40;;;;;12.30;94132.00;;;;7394511;19;20165;-82
2023/07/20 04:04:54;;;;;;;3.83;2.55;;;;;12.40;94117.00;;;;7394591;19;20153;-82
2023/07/20 04:07:22;;;;;;;5.15;2.60;;;;;12.60;94116.00;;;;7395336;19;20231;-79
2023/07/20 04:09:57;;;;;;;4.70;2.50;;;;;12.70;94117.00;;;;7396364;19;20140;-81
2023/07/20 04:12:25;;;;;;;2.60;2.07;;;;;12.80;94126.00;;;;7397873;19;20616;-79
2023/07/20 04:15:00;;;;;;;4.32;2.65;;;;;13.00;94129.00;;;;7396997;19;20224;-79
2023/07/20 04:17:29;;;;;;;4.05;2.67;;;;;13.10;94122.00;;;;7397151;19;20264;-80
2023/07/20 04:20:05;;;;;;;8.68;2.00;;;;;13.10;94120.00;;;;7395863;19;20498;-80
2023/07/20 04:22:34;;;;;;;2.45;2.08;;;;;13.20;94126.00;;;;7396240;19;20231;-80
2023/07/20 04:25:09;;;;;;;6.53;2.30;;;;;13.30;94129.00;;;;7397933;19;20136;-80
2023/07/20 04:27:37;;;;;;;6.97;2.47;;;;;13.40;94124.00;;;;7395395;19;20488;-80
2023/07/20 04:30:12;;;;;;;2.97;2.22;;;;;13.60;94123.00;;;;7395772;19;20625;-82
2023/07/20 04:32:47;;;;;;;4.10;2.30;;;;;13.60;94123.00;;;;7394078;19;20611;-82
2023/07/20 04:35:45;;;;;;;3.38;2.13;;;;;13.70;94124.00;;;;7392412;19;20215;-81
2023/07/20 04:38:23;;;;;;;5.60;2.47;;;;;13.70;94123.00;;;;7394296;19;20151;-81
2023/07/20 04:40:58;;;;;;;4.90;2.50;;;;;13.70;94123.00;;;;7395328;19;20161;-82
2023/07/20 04:43:26;;;;;;;4.68;2.80;;;;;13.70;94128.00;;;;7395642;19;20156;-82
2023/07/20 04:46:01;;;;;;;4.70;2.20;;;;;13.80;94122.00;;;;7395305;19;20196;-82
2023/07/20 04:48:29;;;;;;;4.50;2.17;;;;;13.90;94120.00;;;;7394973;19;20200;-83
2023/07/20 04:51:04;;;;;;;2.85;2.15;;;;;14.00;94119.00;;;;7377884;19;20132;-82
2023/07/20 04:53:39;;;;;;;5.05;2.30;;;;;14.00;94130.00;;;;7386216;19;20518;-83
2023/07/20 04:56:14;;;;;;;7.18;2.20;;;;;13.90;94130.00;;;;7385947;19;20160;-81
2023/07/20 04:58:42;;;;;;;5.68;2.22;;;;;14.00;94127.00;;;;7385799;19;20159;-82
2023/07/20 05:01:17;;;;;;;4.30;2.13;;;;;14.10;94131.00;;;;7386387;19;20148;-82
2023/07/20 05:03:52;;;;;;;4.95;2.47;;;;;14.10;94122.00;;;;7386874;19;20183;-83
2023/07/20 05:06:34;;;;;;;4.63;2.60;;;;;14.30;94122.00;;;;7394153;19;20500;-82
2023/07/20 05:09:02;;;;;;;4.18;2.40;;;;;14.50;94119.00;;;;7390035;19;20169;-81
2023/07/20 05:11:37;;;;;;;4.75;2.35;;;;;14.60;94121.00;;;;7392641;19;20552;-82
2023/07/20 05:14:12;;;;;;;3.92;2.42;;;;;14.60;94123.00;;;;7391957;19;20216;-83
2023/07/20 05:16:40;;;;;;;2.97;2.05;;;;;14.70;94119.00;;;;7392687;19;20156;-81
2023/07/20 05:19:15;;;;;;;5.32;2.40;;;;;14.80;94107.00;;;;7394113;19;20129;-81
2023/07/20 05:21:43;;;;;;;5.70;2.38;;;;;15.00;94126.00;;;;7393001;19;20132;-82
2023/07/20 05:24:20;;;;;;;3.42;2.20;;;;;15.10;94122.00;;;;7394778;19;20145;-82
2023/07/20 05:26:49;;;;;;;5.60;2.15;;;;;15.20;94130.00;;;;7395097;19;20145;-82
2023/07/20 05:29:25;;;;;;;3.55;2.42;;;;;15.40;94130.00;;;;7392396;19;20153;-83
2023/07/20 05:31:53;;;;;;;4.68;2.28;;;;;15.50;94129.00;;;;7391818;19;20165;-82
2023/07/20 05:34:21;;;;;;;3.95;2.40;;;;;15.60;94130.00;;;;7393151;19;20144;-82
2023/07/20 05:36:56;;;;;;;5.95;2.22;;;;;15.70;94111.00;;;;7392338;19;20159;-83
2023/07/20 05:39:39;;;;;;;3.92;2.35;;;;;15.70;94113.00;;;;7390306;19;20501;-78
2023/07/20 05:42:13;;;;;;;4.55;2.10;;;;;15.70;94118.00;;;;7388026;19;20160;-80
2023/07/20 05:44:41;;;;;;;4.25;2.42;;;;;15.80;94106.00;;;;7389075;19;20129;-77
2023/07/20 05:47:15;;;;;;;3.85;2.33;;;;;15.90;94108.00;;;;7390217;19;20151;-78
2023/07/20 05:49:43;;;;;;;2.67;1.95;;;;;16.10;94122.00;;;;7388155;19;20169;-81
2023/07/20 05:52:19;;;;;;;4.32;2.50;;;;;16.00;94112.00;;;;7389697;19;20129;-80
2023/07/20 05:54:46;;;;;;;4.72;2.35;;;;;16.00;94119.00;;;;7388523;19;20616;-83
2023/07/20 05:57:20;;;;;;;5.25;2.65;;;;;16.00;94124.00;;;;7389247;19;20149;-79
2023/07/20 05:59:48;;;;;;;4.97;2.25;;;;;16.10;94127.00;;;;7388046;19;20714;-78
2023/07/20 06:02:29;;;;;;;5.57;1.85;;;;;16.20;94126.00;;;;7388517;19;20154;-80
2023/07/20 06:05:10;;;;;;;4.00;2.28;;;;;16.30;94131.00;;;;7388564;19;20638;-79
2023/07/20 06:07:44;;;;;;;4.85;2.10;;;;;16.30;94126.00;;;;7387893;19;20132;-79
2023/07/20 06:10:12;;;;;;;3.80;2.45;;;;;16.50;94135.00;;;;7384583;19;20156;-79
2023/07/20 06:12:40;;;;;;;4.82;2.30;;;;;16.70;94119.00;;;;7387321;19;20142;-78
2023/07/20 06:15:34;;;;;;;3.97;2.53;;;;;17.10;94121.00;;;;7388402;19;20153;-79
2023/07/20 06:18:09;;;;;;;5.38;2.45;;;;;17.50;94119.00;;;;7388101;19;20168;-78
2023/07/20 06:20:43;;;;;;;8.40;2.30;;;;;17.80;94115.00;;;;7388393;19;20664;-80
2023/07/20 06:23:11;;;;;;;6.55;2.22;;;;;17.90;94115.00;;;;7388529;19;20185;-77
2023/07/20 06:25:46;;;;;;;5.00;2.15;;;;;18.50;94110.00;;;;7387824;19;20211;-78
2023/07/20 06:28:13;;;;;;;5.50;2.63;;;;;19.30;94110.00;;;;7386688;19;20172;-81
2023/07/20 06:30:48;;;;;;;4.32;2.13;;;;;19.60;94120.00;;;;7387628;19;20158;-80
2023/07/20 06:33:22;;;;;;;6.80;2.33;;;;;19.50;94106.00;;;;7388427;19;20146;-78
2023/07/20 06:35:57;;;;;;;4.18;2.40;;;;;19.40;94106.00;;;;7388551;19;20200;-84
2023/07/20 06:38:25;;;;;;;6.55;2.55;;;;;19.40;94101.00;;;;7387376;19;20142;-79
2023/07/20 06:41:00;;;;;;;4.80;2.42;;;;;19.10;94109.00;;;;7387137;19;20131;-77
2023/07/20 06:43:37;;;;;;;8.93;2.97;;;;;19.00;94122.00;;;;7386120;19;21122;-79
2023/07/20 06:46:15;;;;;;;5.07;2.75;;;;;18.70;94124.00;;;;7387536;19;20477;-80
2023/07/20 06:48:50;;;;;;;5.18;2.22;;;;;18.90;94107.00;;;;7381077;19;20228;-78
2023/07/20 06:51:28;;;;;;;6.57;2.30;;;;;19.20;94115.00;;;;7387036;19;20160;-79
2023/07/20 06:53:56;;;;;;;3.55;2.30;;;;;19.40;94122.00;;;;7388624;19;20156;-82
2023/07/20 06:56:30;;;;;;;5.05;2.53;;;;;19.20;94109.00;;;;7388869;19;20153;-79
2023/07/20 06:59:12;;;;;;;3.58;2.42;;;;;18.50;94117.00;;;;7389155;19;20584;-79
2023/07/20 07:01:47;;;;;;;7.90;3.00;;;;;18.60;94104.00;;;;7387754;19;20152;-81
2023/07/20 07:04:27;;;;;;;6.10;2.65;;;;;18.30;94112.00;;;;7389007;19;20157;-80
2023/07/20 07:07:03;;;;;;;6.03;2.30;;;;;18.30;94120.00;;;;7384221;19;20238;-79
2023/07/20 07:09:37;;;;;;;5.82;2.20;;;;;18.60;94115.00;;;;7388901;19;23469;-81
2023/07/20 07:12:06;;;;;;;5.57;2.40;;;;;18.30;94112.00;;;;7387096;19;20152;-77
2023/07/20 07:14:40;;;;;;;5.07;2.53;;;;;18.30;94116.00;;;;7387502;19;20144;-79
2023/07/20 07:17:14;;;;;;;6.63;2.38;;;;;18.70;94115.00;;;;7389887;19;20136;-78
2023/07/20 07:19:49;;;;;;;3.95;2.40;;;;;19.00;94113.00;;;;7388747;19;20139;-77
2023/07/20 07:22:17;;;;;;;5.10;2.65;;;;;18.90;94111.00;;;;7388478;19;20537;-78
2023/07/20 07:24:51;;;;;;;6.65;2.67;;;;;18.90;94109.00;;;;7389070;19;20632;-78
2023/07/20 07:27:26;;;;;;;6.22;2.63;;;;;18.20;94120.00;;;;7387485;19;20152;-80
2023/07/20 07:30:01;;;;;;;5.82;3.03;;;;;19.10;94106.00;;;;7388621;19;20154;-78
2023/07/20 07:32:29;;;;;;;2.78;2.47;;;;;19.10;94101.00;;;;7388812;19;20143;-79
2023/07/20 07:35:03;;;;;;;4.97;2.60;;;;;20.00;94100.00;;;;7384572;19;20148;-81
2023/07/20 07:37:36;;;;;;;7.13;2.40;;;;;20.50;94101.00;;;;7388342;19;20220;-80
2023/07/20 07:40:24;;;;;;;6.57;2.67;;;;;20.40;94120.00;;;;7387214;19;20128;-79
2023/07/20 07:43:05;;;;;;;3.38;2.00;;;;;19.60;94125.00;;;;7384405;19;20142;-79
2023/07/20 07:45:37;;;;;;;6.18;2.65;;;;;18.80;94107.00;;;;7385608;19;20153;-79
2023/07/20 07:48:12;;;;;;;5.72;2.50;;;;;19.80;94126.00;;;;7387160;19;20587;-81
2023/07/20 07:50:47;;;;;;;6.47;2.67;;;;;19.70;94133.00;;;;7385950;19;20152;-82
2023/07/20 07:53:21;;;;;;;3.42;2.03;;;;;19.50;94130.00;;;;7387878;19;20503;-81
2023/07/20 07:55:49;;;;;;;5.03;2.28;;;;;19.10;94130.00;;;;7385935;19;20531;-80
2023/07/20 07:58:24;;;;;;;4.00;2.30;;;;;18.30;94133.00;;;;7388498;19;20128;-81
2023/07/20 08:00:59;;;;;;;3.40;1.80;;;;;18.30;94109.00;;;;7388007;19;20634;-81
2023/07/20 08:03:27;;;;;;;6.00;2.42;;;;;19.10;94124.00;;;;7388040;19;20231;-82
2023/07/20 08:06:09;;;;;;;3.55;2.20;;;;;19.00;94095.00;;;;7389604;19;20128;-80
2023/07/20 08:08:37;;;;;;;3.63;2.10;;;;;20.00;94109.00;;;;7387306;19;20177;-81
2023/07/20 08:11:11;;;;;;;2.80;2.22;;;;;20.50;94106.00;;;;7384847;19;20597;-77
2023/07/20 08:13:42;;;;;;;5.63;2.10;;;;;20.60;94122.00;;;;7387298;19;20129;-79
2023/07/20 08:16:10;;;;;;;4.43;2.42;;;;;20.40;94105.00;;;;7387539;19;20181;-76
2023/07/20 08:18:45;;;;;;;4.43;2.00;;;;;19.70;94120.00;;;;7385126;19;20526;-76
2023/07/20 08:21:13;;;;;;;6.95;1.85;;;;;19.50;94103.00;;;;7384145;19;20145;-82
2023/07/20 08:23:47;;;;;;;3.97;2.20;;;;;19.60;94102.00;;;;7387337;19;20133;-77
2023/07/20 08:26:15;;;;;;;4.53;2.08;;;;;19.80;94123.00;;;;7385203;19;20136;-78
2023/07/20 08:28:50;;;;;;;3.30;2.00;;;;;19.70;94105.00;;;;7384510;19;20152;-76
2023/07/20 08:31:25;;;;;;;4.32;2.10;;;;;20.50;94107.00;;;;7385195;19;20681;-78
2023/07/20 08:33:58;;;;;;;3.83;2.33;;;;;21.10;94108.00;;;;7383377;19;20149;-77
2023/07/20 08:36:47;;;;;;;4.93;1.92;;;;;21.30;94132.00;;;;7386181;19;20154;-78
2023/07/20 08:39:15;;;;;;;3.45;2.08;;;;;20.30;94119.00;;;;7380711;19;20163;-79
2023/07/20 08:41:50;;;;;;;2.70;2.13;;;;;20.10;94107.00;;;;7383210;19;20156;-76
2023/07/20 08:44:18;;;;;;;1.92;1.83;;;;;20.00;94109.00;;;;7381512;19;20568;-75
2023/07/20 08:46:53;;;;;;;3.10;1.80;;;;;20.30;94106.00;;;;7385554;19;20136;-79
2023/07/20 08:49:28;;;;;;;3.63;1.77;;;;;21.20;94103.00;;;;7383452;19;20595;-77
2023/07/20 08:52:03;;;;;;;2.03;1.70;;;;;20.30;94129.00;;;;7384572;19;20580;-78
2023/07/20 08:54:36;;;;;;;2.25;1.70;;;;;19.80;94135.00;;;;7382710;19;20133;-77
2023/07/20 08:57:14;;;;;;;1.92;1.70;;;;;19.10;94106.00;;;;7383125;19;20176;-80
2023/07/20 08:59:51;;;;;;;6.50;1.85;;;;;20.30;94124.00;;;;7383103;19;20528;-79
2023/07/20 09:02:20;;;;;;;3.53;1.65;;;;;19.50;94107.00;;;;7383136;19;20166;-81
2023/07/20 09:05:01;;;;;;;3.72;1.65;;;;;20.20;94135.00;;;;7380434;19;20541;-74
2023/07/20 09:07:29;;;;;;;2.55;1.58;;;;;20.00;94103.00;;;;7382026;19;20243;-76
2023/07/20 09:10:05;;;;;;;2.30;1.77;;;;;20.20;94089.00;;;;7380422;19;20151;-74
2023/07/20 09:12:42;;;;;;;2.17;1.63;;;;;20.20;94108.00;;;;7382755;19;20176;-74
2023/07/20 09:15:19;;;;;;;5.55;1.60;;;;;20.50;94101.00;;;;7381663;19;20132;-74
2023/07/20 09:17:54;;;;;;;2.50;1.98;;;;;20.80;94096.00;;;;7384094;19;20129;-77
2023/07/20 09:20:22;;;;;;;2.55;1.65;;;;;20.80;94102.00;;;;7385238;19;20196;-81
2023/07/20 09:22:57;;;;;;;2.67;1.75;;;;;21.30;94093.00;;;;7384564;19;20207;-77
2023/07/20 09:25:26;;;;;;;5.53;1.70;;;;;21.70;94101.00;;;;7383337;19;20149;-78
2023/07/20 09:28:04;;;;;;;2.47;1.83;;;;;21.30;94120.00;;;;7383590;19;20636;-78
2023/07/20 09:30:32;;;;;;;2.05;1.50;;;;;21.70;94104.00;;;;7382894;19;20154;-77
2023/07/20 09:33:20;;;;;;;1.90;1.30;;;;;21.70;94103.00;;;;7385042;19;20195;-78
2023/07/20 09:35:51;;;;;;;3.95;1.70;;;;;22.00;94092.00;;;;7384846;19;20592;-76
2023/07/20 09:38:46;;;;;;;3.55;1.52;;;;;21.40;94099.00;;;;7383641;19;20200;-75
2023/07/20 09:41:19;;;;;;;1.95;1.48;;;;;21.70;94090.00;;;;7381291;19;20169;-76
2023/07/20 09:43:56;;;;;;;2.53;1.42;;;;;21.50;94104.00;;;;7383778;19;20597;-77
2023/07/20 09:46:51;;;;;;;1.63;1.50;;;;;21.10;94096.00;;;;7383525;19;20121;-77
2023/07/20 09:49:26;;;;;;;1.55;1.40;;;;;21.30;94119.00;;;;7382836;19;20129;-79
2023/07/20 09:52:04;;;;;;;1.88;1.48;;;;;21.90;94089.00;;;;7388824;19;20125;-76
2023/07/20 09:54:33;;;;;;;1.80;1.27;;;;;21.40;94090.00;;;;7390695;19;20137;-75
2023/07/20 09:57:08;;;;;;;2.67;1.60;;;;;21.90;94091.00;;;;7387745;19;20193;-74
2023/07/20 09:59:42;;;;;;;3.05;1.70;;;;;22.40;94092.00;;;;7387691;19;20468;-76
2023/07/20 10:02:33;;;;;;;2.25;1.50;;;;;22.20;94092.00;;;;7389145;19;20484;-75
2023/07/20 10:05:10;;;;;;;3.05;1.50;;;;;22.10;94089.00;;;;7385900;19;20161;-76
2023/07/20 10:07:50;;;;;;;2.15;1.52;;;;;22.20;94087.00;;;;7382134;19;21219;-75
2023/07/20 10:10:42;;;;;;;3.53;1.20;;;;;23.10;94096.00;;;;7385866;19;20156;-76
2023/07/20 10:13:21;;;;;;;1.80;1.38;;;;;23.50;94077.00;;;;7385887;19;20133;-76
2023/07/20 10:15:57;;;;;;;1.75;1.30;;;;;23.30;94076.00;;;;7387239;19;20149;-76
2023/07/20 10:18:48;;;;;;;2.65;1.60;;;;;22.00;94087.00;;;;7387095;19;20140;-75
2023/07/20 10:21:19;;;;;;;5.95;1.48;;;;;22.30;94101.00;;;;7389134;19;20154;-74
2023/07/20 10:23:57;;;;;;;2.15;1.30;;;;;21.40;94090.00;;;;7386200;19;20188;-74
2023/07/20 10:26:26;;;;;;;2.75;1.60;;;;;22.10;94078.00;;;;7386593;19;20445;-75
2023/07/20 10:29:05;;;;;;;1.63;1.50;;;;;22.10;94091.00;;;;7386780;19;20159;-75
2023/07/20 10:31:35;;;;;;;2.95;1.60;;;;;21.80;94105.00;;;;7385922;19;20165;-75
2023/07/20 10:34:09;;;;;;;4.07;1.17;;;;;21.90;94078.00;;;;7379806;19;20155;-75
2023/07/20 10:36:46;;;;;;;5.05;1.23;;;;;21.80;94062.00;;;;7386370;19;20150;-75
2023/07/20 10:39:27;;;;;;;1.73;1.45;;;;;22.70;94070.00;;;;7387447;19;20156;-76
2023/07/20 10:42:08;;;;;;;1.92;1.13;;;;;22.70;94071.00;;;;7385206;19;20584;-74
2023/07/20 10:44:44;;;;;;;2.17;1.33;;;;;21.70;94060.00;;;;7385037;19;20580;-77
2023/07/20 10:47:18;;;;;;;2.58;1.40;;;;;22.20;94053.00;;;;7387447;19;20133;-77
2023/07/20 10:50:02;;;;;;;1.55;1.27;;;;;22.00;94107.00;;;;7385773;19;20152;-76
2023/07/20 10:52:43;;;;;;;1.67;1.42;;;;;20.30;94055.00;;;;7388584;19;20133;-78
2023/07/20 10:55:19;;;;;;;1.60;1.30;;;;;22.00;94054.00;;;;7388454;19;20230;-76
2023/07/20 10:58:11;;;;;;;1.40;1.30;;;;;21.90;94103.00;;;;7387145;19;20592;-77
2023/07/20 11:01:02;;;;;;;1.30;1.15;;;;;21.60;94051.00;;;;7386279;19;20273;-77
2023/07/20 11:03:38;;;;;;;1.55;1.42;;;;;22.60;94046.00;;;;7383415;19;20493;-77
2023/07/20 11:06:27;;;;;;;2.05;1.48;;;;;23.80;94045.00;;;;7380709;19;20579;-76
2023/07/20 11:09:10;;;;;;;1.80;1.30;;;;;23.50;94101.00;;;;7389071;19;20142;-79
2023/07/20 11:11:49;;;;;;;2.55;1.60;;;;;22.30;94098.00;;;;7386272;19;20132;-76
2023/07/20 11:14:27;;;;;;;3.10;1.90;;;;;21.00;94068.00;;;;7384990;19;20157;-76
2023/07/20 11:17:13;;;;;;;2.33;1.50;;;;;23.20;94063.00;;;;7386607;19;20156;-76
2023/07/20 11:19:55;;;;;;;1.80;1.52;;;;;22.10;94056.00;;;;7387297;19;20504;-77
2023/07/20 11:22:26;;;;;;;2.20;1.60;;;;;23.70;94049.00;;;;7384945;19;20133;-76
2023/07/20 11:25:01;;;;;;;2.20;1.85;;;;;24.10;94051.00;;;;7388183;19;20128;-78
2023/07/20 11:27:31;;;;;;;1.33;1.23;;;;;24.20;94044.00;;;;7386184;19;20220;-77
2023/07/20 11:30:16;;;;;;;2.58;1.50;;;;;24.60;94040.00;;;;7386711;19;20132;-78
2023/07/20 11:32:51;;;;;;;1.55;1.45;;;;;24.70;94048.00;;;;7386803;19;20585;-78
2023/07/20 11:35:26;;;;;;;1.75;1.50;;;;;24.50;94029.00;;;;7388125;19;20482;-83
2023/07/20 11:37:54;;;;;;;3.00;1.30;;;;;24.90;94036.00;;;;7381638;19;20153;-77
2023/07/20 11:40:29;;;;;;;3.22;1.50;;;;;24.80;94042.00;;;;7385095;19;20533;-77
2023/07/20 11:43:03;;;;;;;1.30;1.20;;;;;25.00;94042.00;;;;7385262;19;20144;-75
2023/07/20 11:45:40;;;;;;;2.63;1.77;;;;;24.80;94036.00;;;;7384368;19;20135;-79
2023/07/20 11:48:16;;;;;;;1.40;1.30;;;;;24.90;94036.00;;;;7383626;19;20622;-82
2023/07/20 11:50:52;;;;;;;3.63;1.50;;;;;25.60;94036.00;;;;7384711;19;20137;-78
2023/07/20 11:53:26;;;;;;;4.85;1.60;;;;;25.40;94034.00;;;;7385051;19;20154;-75
2023/07/20 11:56:01;;;;;;;2.60;1.35;;;;;25.10;94021.00;;;;7380167;19;20145;-76
2023/07/20 11:58:35;;;;;;;2.40;1.50;;;;;25.20;94035.00;;;;7384320;19;20157;-76
2023/07/20 12:01:11;;;;;;;4.90;1.60;;;;;26.40;94019.00;;;;7384488;19;20154;-75
2023/07/20 12:03:45;;;;;;;2.65;1.50;;;;;26.60;94011.00;;;;7382977;19;20175;-76
2023/07/20 12:06:25;;;;;;;1.42;1.25;;;;;25.70;94021.00;;;;7381284;19;20139;-78
2023/07/20 12:08:58;;;;;;;2.13;1.45;;;;;25.60;94043.00;;;;7378506;19;20138;-78
2023/07/20 12:11:37;;;;;;;2.80;1.60;;;;;26.30;94032.00;;;;7383366;19;20139;-77
2023/07/20 12:14:09;;;;;;;2.13;1.55;;;;;25.70;94025.00;;;;7383696;19;20132;-77
2023/07/20 12:16:51;;;;;;;4.35;1.50;;;;;26.40;94014.00;;;;7382783;19;20136;-78
2023/07/20 12:19:26;;;;;;;1.42;1.33;;;;;26.80;94023.00;;;;7382909;19;20145;-75
2023/07/20 12:22:00;;;;;;;4.10;1.70;;;;;26.50;94017.00;;;;7384333;19;20486;-77
2023/07/20 12:24:34;;;;;;;3.15;2.00;;;;;24.80;94014.00;;;;7384683;19;20149;-78
2023/07/20 12:27:03;;;;;;;1.73;1.10;;;;;25.10;94051.00;;;;7383311;19;20144;-77
2023/07/20 12:29:39;;;;;;;1.55;1.20;;;;;24.70;94051.00;;;;7382385;19;20144;-78
2023/07/20 12:32:07;;;;;;;2.05;1.60;;;;;23.90;94015.00;;;;7382043;19;20148;-78
2023/07/20 12:34:42;;;;;;;3.65;1.50;;;;;24.20;94010.00;;;;7384311;19;20132;-78
2023/07/20 12:37:20;;;;;;;1.67;1.30;;;;;24.70;94046.00;;;;7383871;19;20137;-77
2023/07/20 12:39:53;;;;;;;2.90;1.73;;;;;24.20;93999.00;;;;7381722;19;20215;-76
2023/07/20 12:42:28;;;;;;;2.20;1.52;;;;;24.90;94007.00;;;;7381844;19;20481;-74
2023/07/20 12:44:55;;;;;;;2.00;1.77;;;;;25.10;94007.00;;;;7383186;19;20176;-75
2023/07/20 12:47:29;;;;;;;3.58;1.42;;;;;26.50;93994.00;;;;7384543;19;20486;-73
2023/07/20 12:50:06;;;;;;;1.90;1.77;;;;;26.40;93996.00;;;;7383386;19;20133;-74
2023/07/20 12:52:40;;;;;;;4.20;1.52;;;;;25.10;93994.00;;;;7382631;19;20530;-75
2023/07/20 12:55:14;;;;;;;1.70;1.60;;;;;25.80;93993.00;;;;7384700;19;20133;-75
2023/07/20 12:57:49;;;;;;;2.55;1.63;;;;;26.60;93984.00;;;;7384127;19;20132;-75